createdAt,value
2019-03-16T00:00:02.963Z,9.6
2019-03-16T00:01:03.707Z,9.5
2019-03-16T00:02:02.776Z,9.5
2019-03-16T00:03:03.267Z,9.6
2019-03-16T00:04:03.434Z,9.5
2019-03-16T00:05:03.792Z,9.5
2019-03-16T00:06:03.555Z,9.5
2019-03-16T00:07:03.635Z,9.5
2019-03-16T00:08:03.592Z,9.5
2019-03-16T00:09:03.189Z,9.5
2019-03-16T00:10:03.743Z,9.5
2019-03-16T00:11:03.605Z,9.6
2019-03-16T00:12:04.213Z,9.6
2019-03-16T00:13:03.722Z,9.6
2019-03-16T00:14:03.496Z,9.6
2019-03-16T00:15:02.814Z,9.6
2019-03-16T00:16:03.242Z,9.6
2019-03-16T00:17:03.598Z,9.6
2019-03-16T00:18:03.724Z,9.6
2019-03-16T00:19:03.552Z,9.6
2019-03-16T00:20:03.608Z,9.6
2019-03-16T00:21:03.513Z,9.6
2019-03-16T00:22:03.091Z,9.6
2019-03-16T00:23:03.348Z,9.6
2019-03-16T00:24:03.088Z,9.7
2019-03-16T00:25:03.206Z,9.6
2019-03-16T00:26:03.031Z,9.6
2019-03-16T00:27:03.052Z,9.7
2019-03-16T00:28:03.357Z,9.6
2019-03-16T00:29:02.865Z,9.6
2019-03-16T00:30:02.930Z,9.6
2019-03-16T00:31:03.032Z,9.6
2019-03-16T00:32:14.025Z,9.6
2019-03-16T00:33:02.934Z,9.5
2019-03-16T00:34:02.940Z,9.5
2019-03-16T00:35:03.277Z,9.5
2019-03-16T00:36:02.726Z,9.6
2019-03-16T00:37:03.145Z,9.6
2019-03-16T00:38:02.471Z,9.5
2019-03-16T00:39:02.931Z,9.5
2019-03-16T00:40:03.709Z,9.5
2019-03-16T00:41:02.871Z,9.5
2019-03-16T00:42:03.858Z,9.4
2019-03-16T00:43:02.777Z,9.4
2019-03-16T00:44:03.617Z,9.4
2019-03-16T00:45:03.545Z,9.5
2019-03-16T00:46:03.269Z,9.5
2019-03-16T00:47:03.590Z,9.5
2019-03-16T00:48:03.672Z,9.6
2019-03-16T00:49:03.406Z,9.6
2019-03-16T00:50:03.752Z,9.6
2019-03-16T00:51:03.281Z,9.6
2019-03-16T00:52:03.533Z,9.6
2019-03-16T00:53:03.239Z,9.6
2019-03-16T00:54:03.762Z,9.6
2019-03-16T00:55:03.668Z,9.6
2019-03-16T00:56:03.047Z,9.6
2019-03-16T00:57:03.750Z,9.6
2019-03-16T00:58:03.181Z,9.6
2019-03-16T00:59:03.502Z,9.6
2019-03-16T01:00:03.195Z,9.6
2019-03-16T01:01:03.216Z,9.6
2019-03-16T01:02:02.691Z,9.5
2019-03-16T01:03:03.312Z,9.5
2019-03-16T01:04:03.082Z,9.6
2019-03-16T01:05:03.226Z,9.6
2019-03-16T01:06:02.894Z,9.6
2019-03-16T01:07:02.806Z,9.5
2019-03-16T01:08:03.064Z,9.5
2019-03-16T01:09:03.792Z,9.5
2019-03-16T01:10:03.051Z,9.5
2019-03-16T01:11:03.664Z,9.4
2019-03-16T01:12:02.929Z,9.4
2019-03-16T01:13:03.633Z,9.4
2019-03-16T01:14:02.816Z,9.5
2019-03-16T01:15:03.678Z,9.4
2019-03-16T01:16:03.515Z,9.4
2019-03-16T01:17:03.605Z,9.5
2019-03-16T01:18:03.667Z,9.5
2019-03-16T01:19:03.446Z,9.5
2019-03-16T01:20:03.500Z,9.5
2019-03-16T01:21:03.405Z,9.5
2019-03-16T01:22:02.931Z,9.4
2019-03-16T01:23:03.607Z,9.4
2019-03-16T01:24:01.804Z,9.5
2019-03-16T01:25:02.736Z,9.5
2019-03-16T01:26:03.666Z,9.5
2019-03-16T01:27:03.581Z,9.5
2019-03-16T01:28:02.975Z,9.6
2019-03-16T01:29:03.115Z,9.6
2019-03-16T01:30:03.271Z,9.6
2019-03-16T01:31:03.175Z,9.5
2019-03-16T01:32:02.866Z,9.5
2019-03-16T01:33:02.853Z,9.5
2019-03-16T01:34:02.942Z,9.6
2019-03-16T01:35:02.965Z,9.6
2019-03-16T01:36:03.194Z,9.6
2019-03-16T01:37:03.050Z,9.6
2019-03-16T01:38:03.083Z,9.5
2019-03-16T01:39:02.990Z,9.5
2019-03-16T01:40:03.004Z,9.4
2019-03-16T01:41:02.942Z,9.4
2019-03-16T01:42:03.520Z,9.4
2019-03-16T01:43:02.850Z,9.4
2019-03-16T01:44:02.945Z,9.4
2019-03-16T01:45:02.900Z,9.4
2019-03-16T01:46:03.601Z,9.4
2019-03-16T01:47:02.729Z,9.4
2019-03-16T01:48:02.694Z,9.4
2019-03-16T01:49:02.578Z,9.4
2019-03-16T01:50:03.388Z,9.4
2019-03-16T01:51:03.829Z,9.4
2019-03-16T01:52:03.541Z,9.4
2019-03-16T01:53:03.644Z,9.4
2019-03-16T01:54:02.897Z,9.4
2019-03-16T01:55:02.825Z,9.4
2019-03-16T01:56:03.608Z,9.3
2019-03-16T01:57:03.618Z,9.3
2019-03-16T01:58:02.822Z,9.3
2019-03-16T01:59:03.482Z,9.3
2019-03-16T02:00:02.912Z,9.3
2019-03-16T02:01:03.425Z,9.3
2019-03-16T02:02:03.751Z,9.3
2019-03-16T02:03:03.304Z,9.3
2019-03-16T02:04:03.642Z,9.3
2019-03-16T02:05:03.444Z,9.3
2019-03-16T02:06:03.462Z,9.3
2019-03-16T02:07:03.284Z,9.3
2019-03-16T02:08:03.732Z,9.3
2019-03-16T02:09:03.429Z,9.3
2019-03-16T02:10:03.116Z,9.4
2019-03-16T02:11:02.939Z,9.4
2019-03-16T02:12:03.180Z,9.4
2019-03-16T02:13:03.082Z,9.4
2019-03-16T02:14:02.848Z,9.4
2019-03-16T02:15:03.550Z,9.4
2019-03-16T02:16:11.778Z,9.4
2019-03-16T02:17:02.905Z,9.4
2019-03-16T02:18:03.090Z,9.4
2019-03-16T02:19:03.054Z,9.4
2019-03-16T02:20:02.985Z,9.4
2019-03-16T02:21:03.731Z,9.4
2019-03-16T02:22:02.552Z,9.4
2019-03-16T02:23:02.971Z,9.4
2019-03-16T02:24:03.710Z,9.4
2019-03-16T02:25:03.629Z,9.4
2019-03-16T02:26:02.899Z,9.4
2019-03-16T02:27:03.775Z,9.3
2019-03-16T02:28:02.950Z,9.3
2019-03-16T02:29:03.158Z,9.3
2019-03-16T02:30:03.679Z,9.3
2019-03-16T02:31:03.762Z,9.3
2019-03-16T02:32:03.812Z,9.3
2019-03-16T02:33:13.988Z,9.4
2019-03-16T02:34:03.333Z,9.4
2019-03-16T02:35:03.484Z,9.3
2019-03-16T02:36:03.406Z,9.3
2019-03-16T02:37:02.908Z,9.3
2019-03-16T02:38:03.155Z,9.3
2019-03-16T02:39:03.565Z,9.3
2019-03-16T02:40:03.320Z,9.3
2019-03-16T02:41:03.206Z,9.3
2019-03-16T02:42:02.783Z,9.3
2019-03-16T02:43:03.220Z,9.3
2019-03-16T02:44:03.161Z,9.3
2019-03-16T02:45:03.027Z,9.3
2019-03-16T02:46:02.766Z,9.3
2019-03-16T02:47:02.637Z,9.3
2019-03-16T02:48:02.717Z,9.3
2019-03-16T02:49:02.923Z,9.3
2019-03-16T02:50:02.397Z,9.3
2019-03-16T02:51:03.452Z,9.3
2019-03-16T02:52:03.677Z,9.3
2019-03-16T02:53:03.662Z,9.2
2019-03-16T02:54:03.565Z,9.2
2019-03-16T02:55:03.685Z,9.2
2019-03-16T02:56:03.563Z,9.3
2019-03-16T02:57:03.655Z,9.2
2019-03-16T02:58:03.498Z,9.2
2019-03-16T02:59:03.547Z,9.2
2019-03-16T03:00:03.534Z,9.2
2019-03-16T03:01:03.485Z,9.2
2019-03-16T03:02:03.727Z,9.2
2019-03-16T03:03:03.268Z,9.2
2019-03-16T03:04:03.577Z,9.1
2019-03-16T03:05:03.044Z,9.1
2019-03-16T03:06:03.381Z,9.1
2019-03-16T03:07:03.297Z,9.1
2019-03-16T03:08:02.982Z,9.1
2019-03-16T03:09:03.236Z,9.1
2019-03-16T03:10:03.274Z,9.1
2019-03-16T03:11:02.911Z,9.1
2019-03-16T03:12:03.077Z,9.1
2019-03-16T03:13:02.863Z,9.1
2019-03-16T03:14:03.458Z,9.1
2019-03-16T03:15:03.910Z,9.1
2019-03-16T03:16:02.983Z,9.1
2019-03-16T03:17:02.901Z,9.1
2019-03-16T03:18:03.050Z,9
2019-03-16T03:19:03.653Z,9.1
2019-03-16T03:20:02.493Z,9.1
2019-03-16T03:21:02.866Z,9.1
2019-03-16T03:22:03.140Z,9.1
2019-03-16T03:23:03.677Z,9.1
2019-03-16T03:24:03.275Z,9.1
2019-03-16T03:25:03.951Z,9.1
2019-03-16T03:26:03.450Z,9.1
2019-03-16T03:27:03.706Z,9.1
2019-03-16T03:28:03.586Z,9
2019-03-16T03:29:03.595Z,9
2019-03-16T03:30:03.334Z,9
2019-03-16T03:31:03.418Z,8.9
2019-03-16T03:32:03.629Z,8.9
2019-03-16T03:33:03.403Z,8.9
2019-03-16T03:34:03.409Z,8.9
2019-03-16T03:35:03.546Z,8.9
2019-03-16T03:36:03.721Z,8.9
2019-03-16T03:37:02.946Z,8.9
2019-03-16T03:38:03.314Z,8.9
2019-03-16T03:39:03.261Z,8.8
2019-03-16T03:40:03.407Z,8.9
2019-03-16T03:41:02.965Z,8.8
2019-03-16T03:42:03.035Z,8.9
2019-03-16T03:43:02.486Z,8.8
2019-03-16T03:44:02.969Z,8.9
2019-03-16T03:45:03.014Z,8.9
2019-03-16T03:46:02.870Z,8.8
2019-03-16T03:47:03.769Z,8.8
2019-03-16T03:48:03.259Z,8.8
2019-03-16T03:49:02.702Z,8.8
2019-03-16T03:50:03.002Z,8.8
2019-03-16T03:51:02.994Z,8.8
2019-03-16T03:52:02.514Z,8.8
2019-03-16T03:53:03.049Z,8.8
2019-03-16T03:54:03.629Z,8.8
2019-03-16T03:55:02.960Z,8.8
2019-03-16T03:56:03.657Z,8.8
2019-03-16T03:57:03.652Z,8.8
2019-03-16T03:58:03.542Z,8.8
2019-03-16T03:59:03.778Z,8.8
2019-03-16T04:00:03.775Z,8.9
2019-03-16T04:01:02.884Z,8.9
2019-03-16T04:02:03.583Z,8.8
2019-03-16T04:03:03.422Z,8.9
2019-03-16T04:04:16.357Z,8.9
2019-03-16T04:05:03.392Z,8.8
2019-03-16T04:06:03.402Z,8.9
2019-03-16T04:07:03.210Z,8.8
2019-03-16T04:08:04.003Z,8.8
2019-03-16T04:09:02.818Z,8.8
2019-03-16T04:10:03.427Z,8.8
2019-03-16T04:11:02.984Z,8.8
2019-03-16T04:12:02.872Z,8.8
2019-03-16T04:13:03.229Z,8.8
2019-03-16T04:14:03.083Z,8.8
2019-03-16T04:15:03.351Z,8.8
2019-03-16T04:16:03.105Z,8.8
2019-03-16T04:17:02.993Z,8.8
2019-03-16T04:18:02.799Z,8.8
2019-03-16T04:19:03.032Z,8.8
2019-03-16T04:20:02.971Z,8.8
2019-03-16T04:21:02.705Z,8.8
2019-03-16T04:22:02.958Z,8.8
2019-03-16T04:23:03.252Z,8.8
2019-03-16T04:24:02.833Z,8.8
2019-03-16T04:25:03.938Z,8.8
2019-03-16T04:26:03.811Z,8.8
2019-03-16T04:27:17.054Z,8.8
2019-03-16T04:28:03.317Z,8.8
2019-03-16T04:29:03.679Z,8.8
2019-03-16T04:30:03.509Z,8.8
2019-03-16T04:31:03.388Z,8.8
2019-03-16T04:32:02.899Z,8.8
2019-03-16T04:33:03.458Z,8.8
2019-03-16T04:34:03.689Z,8.8
2019-03-16T04:35:03.750Z,8.8
2019-03-16T04:36:03.875Z,8.8
2019-03-16T04:37:03.453Z,8.8
2019-03-16T04:38:03.410Z,8.8
2019-03-16T04:39:03.326Z,8.8
2019-03-16T04:40:03.607Z,8.8
2019-03-16T04:41:03.134Z,8.8
2019-03-16T04:42:02.986Z,8.8
2019-03-16T04:43:03.620Z,8.8
2019-03-16T04:44:03.224Z,8.8
2019-03-16T04:45:02.777Z,8.8
2019-03-16T04:46:03.165Z,8.8
2019-03-16T04:47:03.273Z,8.8
2019-03-16T04:48:02.688Z,8.8
2019-03-16T04:49:03.220Z,8.8
2019-03-16T04:50:03.249Z,8.8
2019-03-16T04:51:03.115Z,8.8
2019-03-16T04:52:02.860Z,8.7
2019-03-16T04:53:02.911Z,8.7
2019-03-16T04:54:03.030Z,8.8
2019-03-16T04:55:03.090Z,8.8
2019-03-16T04:56:03.084Z,8.7
2019-03-16T04:57:02.722Z,8.7
2019-03-16T04:58:03.023Z,8.7
2019-03-16T04:59:02.824Z,8.6
2019-03-16T05:00:03.928Z,8.6
2019-03-16T05:01:03.854Z,8.6
2019-03-16T05:02:03.768Z,8.6
2019-03-16T05:03:03.530Z,8.6
2019-03-16T05:04:02.967Z,8.6
2019-03-16T05:05:03.744Z,8.6
2019-03-16T05:06:02.910Z,8.6
2019-03-16T05:07:03.727Z,8.7
2019-03-16T05:08:03.650Z,8.7
2019-03-16T05:09:03.490Z,8.7
2019-03-16T05:10:03.477Z,8.7
2019-03-16T05:11:03.918Z,8.7
2019-03-16T05:12:03.150Z,8.7
2019-03-16T05:13:03.097Z,8.7
2019-03-16T05:14:03.663Z,8.7
2019-03-16T05:15:03.442Z,8.7
2019-03-16T05:16:03.178Z,8.7
2019-03-16T05:17:03.557Z,8.7
2019-03-16T05:18:03.104Z,8.7
2019-03-16T05:19:03.298Z,8.7
2019-03-16T05:20:03.293Z,8.7
2019-03-16T05:21:03.006Z,8.7
2019-03-16T05:22:03.297Z,8.7
2019-03-16T05:23:02.948Z,8.6
2019-03-16T05:24:03.221Z,8.6
2019-03-16T05:25:03.190Z,8.6
2019-03-16T05:26:02.914Z,8.6
2019-03-16T05:27:03.014Z,8.6
2019-03-16T05:28:03.121Z,8.6
2019-03-16T05:29:03.000Z,8.6
2019-03-16T05:30:03.162Z,8.6
2019-03-16T05:31:02.885Z,8.6
2019-03-16T05:32:03.791Z,8.6
2019-03-16T05:33:03.816Z,8.6
2019-03-16T05:34:03.345Z,8.6
2019-03-16T05:35:03.873Z,8.6
2019-03-16T05:36:03.308Z,8.6
2019-03-16T05:37:03.580Z,8.6
2019-03-16T05:38:03.671Z,8.6
2019-03-16T05:39:03.564Z,8.6
2019-03-16T05:40:03.363Z,8.6
2019-03-16T05:41:03.441Z,8.6
2019-03-16T05:42:05.743Z,8.6
2019-03-16T05:43:03.732Z,8.6
2019-03-16T05:44:03.148Z,8.6
2019-03-16T05:45:03.328Z,8.6
2019-03-16T05:46:03.022Z,8.7
2019-03-16T05:47:02.796Z,8.6
2019-03-16T05:48:03.233Z,8.7
2019-03-16T05:49:03.192Z,8.7
2019-03-16T05:50:02.998Z,8.8
2019-03-16T05:51:02.923Z,8.8
2019-03-16T05:52:02.840Z,8.8
2019-03-16T05:53:03.230Z,8.8
2019-03-16T05:54:03.166Z,8.8
2019-03-16T05:55:03.083Z,8.8
2019-03-16T05:56:03.210Z,8.8
2019-03-16T05:57:02.941Z,8.8
2019-03-16T05:58:02.958Z,8.8
2019-03-16T05:59:02.751Z,8.8
2019-03-16T06:00:03.039Z,8.8
2019-03-16T06:01:02.835Z,8.8
2019-03-16T06:02:02.590Z,8.8
2019-03-16T06:03:02.932Z,8.8
2019-03-16T06:04:03.748Z,8.8
2019-03-16T06:05:11.563Z,8.8
2019-03-16T06:06:03.677Z,8.8
2019-03-16T06:07:03.512Z,8.8
2019-03-16T06:08:03.515Z,8.8
2019-03-16T06:09:03.496Z,8.8
2019-03-16T06:10:03.442Z,8.9
2019-03-16T06:11:03.318Z,8.9
2019-03-16T06:12:03.592Z,8.9
2019-03-16T06:13:03.615Z,8.9
2019-03-16T06:14:03.495Z,8.9
2019-03-16T06:15:03.371Z,8.9
2019-03-16T06:16:03.491Z,8.9
2019-03-16T06:17:03.409Z,8.9
2019-03-16T06:18:03.023Z,8.9
2019-03-16T06:19:03.172Z,8.9
2019-03-16T06:20:03.607Z,9
2019-03-16T06:21:03.324Z,9
2019-03-16T06:22:03.268Z,9
2019-03-16T06:23:03.321Z,9.1
2019-03-16T06:24:03.229Z,9.1
2019-03-16T06:25:03.319Z,9
2019-03-16T06:26:03.031Z,9
2019-03-16T06:27:03.202Z,9
2019-03-16T06:28:03.087Z,9
2019-03-16T06:29:03.378Z,9
2019-03-16T06:30:03.223Z,9
2019-03-16T06:31:03.081Z,9.1
2019-03-16T06:32:02.823Z,9.1
2019-03-16T06:33:03.204Z,9.1
2019-03-16T06:34:02.921Z,9.1
2019-03-16T06:35:03.175Z,9.1
2019-03-16T06:36:02.877Z,9.1
2019-03-16T06:37:02.863Z,9.1
2019-03-16T06:38:03.424Z,9.1
2019-03-16T06:39:03.747Z,9.1
2019-03-16T06:40:02.929Z,9.1
2019-03-16T06:41:03.360Z,9.1
2019-03-16T06:42:02.882Z,9.1
2019-03-16T06:43:03.751Z,9.1
2019-03-16T06:44:04.060Z,9.1
2019-03-16T06:45:03.594Z,9.1
2019-03-16T06:46:03.038Z,9.1
2019-03-16T06:47:03.765Z,9.1
2019-03-16T06:48:03.494Z,9.1
2019-03-16T06:49:03.360Z,9.1
2019-03-16T06:50:03.330Z,9.1
2019-03-16T06:51:03.642Z,9.1
2019-03-16T06:52:03.404Z,9.1
2019-03-16T06:53:03.268Z,9.1
2019-03-16T06:54:03.288Z,9.2
2019-03-16T06:55:03.486Z,9.2
2019-03-16T06:56:03.153Z,9.1
2019-03-16T06:57:03.041Z,9.2
2019-03-16T06:58:03.389Z,9.1
2019-03-16T06:59:03.559Z,9.1
2019-03-16T07:00:03.519Z,9.2
2019-03-16T07:01:03.211Z,9.1
2019-03-16T07:02:03.410Z,9.1
2019-03-16T07:03:03.146Z,9.1
2019-03-16T07:04:03.586Z,9.2
2019-03-16T07:05:03.394Z,9.2
2019-03-16T07:06:03.367Z,9.2
2019-03-16T07:07:03.004Z,9.2
2019-03-16T07:08:03.554Z,9.2
2019-03-16T07:09:03.206Z,9.1
2019-03-16T07:10:03.504Z,9.2
2019-03-16T07:11:03.245Z,9.1
2019-03-16T07:12:03.534Z,9.1
2019-03-16T07:13:02.864Z,9.2
2019-03-16T07:14:03.301Z,9.2
2019-03-16T07:15:03.421Z,9.3
2019-03-16T07:16:03.059Z,9.3
2019-03-16T07:17:03.154Z,9.3
2019-03-16T07:18:03.182Z,9.3
2019-03-16T07:19:03.231Z,9.3
2019-03-16T07:20:03.093Z,9.3
2019-03-16T07:21:03.325Z,9.3
2019-03-16T07:22:02.901Z,9.4
2019-03-16T07:23:02.990Z,9.4
2019-03-16T07:24:03.187Z,9.4
2019-03-16T07:25:03.898Z,9.4
2019-03-16T07:26:15.515Z,9.5
2019-03-16T07:27:03.554Z,9.5
2019-03-16T07:28:02.847Z,9.6
2019-03-16T07:29:03.232Z,9.6
2019-03-16T07:30:02.719Z,9.6
2019-03-16T07:31:03.369Z,9.6
2019-03-16T07:32:03.247Z,9.7
2019-03-16T07:33:03.750Z,9.8
2019-03-16T07:34:02.998Z,9.8
2019-03-16T07:35:03.792Z,9.8
2019-03-16T07:36:02.831Z,9.8
2019-03-16T07:37:03.700Z,9.8
2019-03-16T07:38:03.537Z,9.8
2019-03-16T07:39:03.722Z,9.8
2019-03-16T07:40:03.567Z,9.8
2019-03-16T07:41:03.673Z,9.7
2019-03-16T07:42:03.539Z,9.8
2019-03-16T07:43:03.582Z,9.8
2019-03-16T07:44:03.290Z,9.8
2019-03-16T07:45:09.258Z,9.8
2019-03-16T07:46:03.482Z,9.8
2019-03-16T07:47:03.470Z,9.8
2019-03-16T07:48:03.927Z,9.8
2019-03-16T07:49:03.650Z,9.8
2019-03-16T07:50:03.503Z,9.8
2019-03-16T07:51:03.112Z,9.9
2019-03-16T07:52:02.874Z,9.9
2019-03-16T07:53:03.010Z,9.9
2019-03-16T07:54:03.231Z,9.9
2019-03-16T07:55:03.238Z,9.8
2019-03-16T07:56:03.123Z,9.8
2019-03-16T07:57:02.988Z,9.8
2019-03-16T07:58:02.899Z,9.8
2019-03-16T07:59:03.101Z,9.8
2019-03-16T08:00:02.966Z,9.9
2019-03-16T08:01:03.941Z,9.9
2019-03-16T08:02:02.890Z,9.9
2019-03-16T08:03:02.888Z,9.9
2019-03-16T08:04:03.665Z,9.9
2019-03-16T08:05:19.481Z,10
2019-03-16T08:06:03.370Z,10.1
2019-03-16T08:07:03.391Z,10.1
2019-03-16T08:08:03.320Z,10.1
2019-03-16T08:09:03.910Z,10.1
2019-03-16T08:10:03.721Z,10.1
2019-03-16T08:11:03.686Z,10.1
2019-03-16T08:12:03.561Z,10.1
2019-03-16T08:13:03.842Z,10.1
2019-03-16T08:14:03.737Z,10.1
2019-03-16T08:15:03.732Z,10.1
2019-03-16T08:16:03.496Z,10.1
2019-03-16T08:17:03.122Z,10.1
2019-03-16T08:18:03.360Z,10.1
2019-03-16T08:19:03.334Z,10.1
2019-03-16T08:20:03.514Z,10.1
2019-03-16T08:21:03.530Z,10.2
2019-03-16T08:22:03.119Z,10.2
2019-03-16T08:23:03.429Z,10.3
2019-03-16T08:24:03.422Z,10.3
2019-03-16T08:25:03.478Z,10.3
2019-03-16T08:26:03.391Z,10.3
2019-03-16T08:27:03.362Z,10.3
2019-03-16T08:28:03.090Z,10.3
2019-03-16T08:29:03.223Z,10.3
2019-03-16T08:30:03.334Z,10.3
2019-03-16T08:31:03.323Z,10.4
2019-03-16T08:32:02.929Z,10.4
2019-03-16T08:33:02.916Z,10.3
2019-03-16T08:34:03.053Z,10.4
2019-03-16T08:35:03.210Z,10.4
2019-03-16T08:36:02.915Z,10.4
2019-03-16T08:37:02.997Z,10.4
2019-03-16T08:38:02.956Z,10.4
2019-03-16T08:39:03.082Z,10.5
2019-03-16T08:40:02.803Z,10.5
2019-03-16T08:41:02.963Z,10.5
2019-03-16T08:42:02.912Z,10.6
2019-03-16T08:43:03.517Z,10.6
2019-03-16T08:44:03.798Z,10.6
2019-03-16T08:45:03.516Z,10.6
2019-03-16T08:46:03.607Z,10.6
2019-03-16T08:47:03.425Z,10.6
2019-03-16T08:48:03.531Z,10.6
2019-03-16T08:49:03.071Z,10.6
2019-03-16T08:50:03.530Z,10.6
2019-03-16T08:51:03.272Z,10.6
2019-03-16T08:52:03.408Z,10.6
2019-03-16T08:53:03.358Z,10.6
2019-03-16T08:54:03.521Z,10.6
2019-03-16T08:55:03.370Z,10.7
2019-03-16T08:56:03.115Z,10.7
2019-03-16T08:57:03.516Z,10.7
2019-03-16T08:58:06.655Z,10.7
2019-03-16T08:59:03.399Z,10.7
2019-03-16T09:00:03.443Z,10.6
2019-03-16T09:01:03.120Z,10.6
2019-03-16T09:02:02.834Z,10.6
2019-03-16T09:03:03.192Z,10.6
2019-03-16T09:04:03.043Z,10.6
2019-03-16T09:05:02.990Z,10.6
2019-03-16T09:06:02.651Z,10.6
2019-03-16T09:07:03.380Z,10.6
2019-03-16T09:08:03.085Z,10.6
2019-03-16T09:09:02.986Z,10.6
2019-03-16T09:10:03.178Z,10.6
2019-03-16T09:11:03.857Z,10.6
2019-03-16T09:12:03.128Z,10.6
2019-03-16T09:13:03.028Z,10.6
2019-03-16T09:14:02.906Z,10.6
2019-03-16T09:15:03.735Z,10.5
2019-03-16T09:16:02.916Z,10.5
2019-03-16T09:17:03.851Z,10.5
2019-03-16T09:18:03.418Z,10.4
2019-03-16T09:19:03.566Z,10.5
2019-03-16T09:20:03.424Z,10.4
2019-03-16T09:21:03.667Z,10.4
2019-03-16T09:22:03.736Z,10.5
2019-03-16T09:23:03.769Z,10.5
2019-03-16T09:24:03.642Z,10.5
2019-03-16T09:25:03.857Z,10.5
2019-03-16T09:26:03.448Z,10.4
2019-03-16T09:27:03.549Z,10.5
2019-03-16T09:28:03.354Z,10.5
2019-03-16T09:29:15.579Z,10.5
2019-03-16T09:30:03.498Z,10.5
2019-03-16T09:31:03.360Z,10.5
2019-03-16T09:32:03.421Z,10.5
2019-03-16T09:33:03.553Z,10.6
2019-03-16T09:34:03.282Z,10.6
2019-03-16T09:35:03.398Z,10.6
2019-03-16T09:36:03.443Z,10.7
2019-03-16T09:37:03.341Z,10.7
2019-03-16T09:38:05.605Z,10.8
2019-03-16T09:39:03.284Z,10.8
2019-03-16T09:40:03.426Z,10.8
2019-03-16T09:41:03.385Z,10.8
2019-03-16T09:42:03.269Z,10.8
2019-03-16T09:43:03.153Z,10.8
2019-03-16T09:44:03.235Z,10.9
2019-03-16T09:45:03.394Z,10.9
2019-03-16T09:46:02.982Z,10.9
2019-03-16T09:47:03.016Z,10.9
2019-03-16T09:48:02.799Z,10.9
2019-03-16T09:49:03.241Z,11
2019-03-16T09:50:03.087Z,11
2019-03-16T09:51:02.984Z,10.9
2019-03-16T09:52:02.990Z,11
2019-03-16T09:53:03.161Z,10.9
2019-03-16T09:54:02.830Z,10.9
2019-03-16T09:55:03.882Z,11
2019-03-16T09:56:03.378Z,10.9
2019-03-16T09:57:03.682Z,11
2019-03-16T09:58:03.565Z,11
2019-03-16T09:59:03.609Z,11
2019-03-16T10:00:03.782Z,11
2019-03-16T10:01:03.827Z,10.9
2019-03-16T10:02:03.672Z,10.9
2019-03-16T10:03:03.488Z,10.9
2019-03-16T10:04:03.745Z,10.9
2019-03-16T10:05:03.146Z,10.9
2019-03-16T10:06:03.613Z,10.8
2019-03-16T10:07:03.630Z,10.9
2019-03-16T10:08:03.279Z,10.9
2019-03-16T10:09:03.753Z,10.9
2019-03-16T10:10:03.510Z,11
2019-03-16T10:11:03.536Z,11.1
2019-03-16T10:12:03.164Z,11.1
2019-03-16T10:13:02.748Z,11.1
2019-03-16T10:14:03.010Z,11.2
2019-03-16T10:15:03.295Z,11.1
2019-03-16T10:16:03.140Z,11.1
2019-03-16T10:17:03.141Z,11.1
2019-03-16T10:18:02.865Z,11.1
2019-03-16T10:19:03.134Z,11.1
2019-03-16T10:20:03.023Z,11.1
2019-03-16T10:21:03.022Z,11.1
2019-03-16T10:22:03.186Z,11.1
2019-03-16T10:23:03.253Z,11.1
2019-03-16T10:24:03.056Z,11.1
2019-03-16T10:25:02.944Z,11.1
2019-03-16T10:26:03.626Z,11.1
2019-03-16T10:27:02.878Z,11.1
2019-03-16T10:28:03.237Z,11
2019-03-16T10:29:02.668Z,10.9
2019-03-16T10:30:03.756Z,10.9
2019-03-16T10:31:03.633Z,10.9
2019-03-16T10:32:03.012Z,10.9
2019-03-16T10:33:03.794Z,10.8
2019-03-16T10:34:03.671Z,10.8
2019-03-16T10:35:02.877Z,10.9
2019-03-16T10:36:03.588Z,10.9
2019-03-16T10:37:03.306Z,10.9
2019-03-16T10:38:03.642Z,11
2019-03-16T10:39:03.357Z,11
2019-03-16T10:40:03.424Z,11
2019-03-16T10:41:03.664Z,11.1
2019-03-16T10:42:03.389Z,11.1
2019-03-16T10:43:03.326Z,11.1
2019-03-16T10:44:03.714Z,11.1
2019-03-16T10:45:02.921Z,11.1
2019-03-16T10:46:03.299Z,11.2
2019-03-16T10:47:03.019Z,11.2
2019-03-16T10:48:03.408Z,11.1
2019-03-16T10:49:03.731Z,11.1
2019-03-16T10:50:03.423Z,11.1
2019-03-16T10:51:03.247Z,11.1
2019-03-16T10:52:03.458Z,11.1
2019-03-16T10:53:03.313Z,11.1
2019-03-16T10:54:03.148Z,11.1
2019-03-16T10:55:03.133Z,11.1
2019-03-16T10:56:03.029Z,11.1
2019-03-16T10:57:04.696Z,11
2019-03-16T10:58:03.071Z,11
2019-03-16T10:59:03.533Z,11
2019-03-16T11:00:03.160Z,11.1
2019-03-16T11:01:03.385Z,11.1
2019-03-16T11:02:03.208Z,11.1
2019-03-16T11:03:03.196Z,11.1
2019-03-16T11:04:03.245Z,11.1
2019-03-16T11:05:03.087Z,11.1
2019-03-16T11:06:02.890Z,11.1
2019-03-16T11:07:03.084Z,11.1
2019-03-16T11:08:02.701Z,11.2
2019-03-16T11:09:03.025Z,11.2
2019-03-16T11:10:03.087Z,11.1
2019-03-16T11:11:02.761Z,11.2
2019-03-16T11:12:02.748Z,11.2
2019-03-16T11:13:03.604Z,11.2
2019-03-16T11:14:03.341Z,11.3
2019-03-16T11:15:04.007Z,11.3
2019-03-16T11:16:03.605Z,11.3
2019-03-16T11:17:03.642Z,11.3
2019-03-16T11:18:03.781Z,11.3
2019-03-16T11:19:03.707Z,11.4
2019-03-16T11:20:03.582Z,11.4
2019-03-16T11:21:03.529Z,11.4
2019-03-16T11:22:03.509Z,11.4
2019-03-16T11:23:02.916Z,11.4
2019-03-16T11:24:03.380Z,11.4
2019-03-16T11:25:03.854Z,11.5
2019-03-16T11:26:03.516Z,11.6
2019-03-16T11:27:03.447Z,11.6
2019-03-16T11:28:03.480Z,11.8
2019-03-16T11:29:09.616Z,11.8
2019-03-16T11:30:03.590Z,11.9
2019-03-16T11:31:03.598Z,11.9
2019-03-16T11:32:03.500Z,11.9
2019-03-16T11:33:03.346Z,11.9
2019-03-16T11:34:03.563Z,11.9
2019-03-16T11:35:03.426Z,11.9
2019-03-16T11:36:03.236Z,11.9
2019-03-16T11:37:03.271Z,11.8
2019-03-16T11:38:03.203Z,11.8
2019-03-16T11:39:03.230Z,11.8
2019-03-16T11:40:03.188Z,11.7
2019-03-16T11:41:03.359Z,11.8
2019-03-16T11:42:02.826Z,11.8
2019-03-16T11:43:03.208Z,11.8
2019-03-16T11:44:03.046Z,11.8
2019-03-16T11:45:03.102Z,11.9
2019-03-16T11:46:02.998Z,11.8
2019-03-16T11:47:02.893Z,11.8
2019-03-16T11:48:02.834Z,11.8
2019-03-16T11:49:03.047Z,11.6
2019-03-16T11:50:03.411Z,11.6
2019-03-16T11:51:03.002Z,11.6
2019-03-16T11:52:03.764Z,11.6
2019-03-16T11:53:03.560Z,11.5
2019-03-16T11:54:03.022Z,11.5
2019-03-16T11:55:03.677Z,11.5
2019-03-16T11:56:03.811Z,11.4
2019-03-16T11:57:03.401Z,11.4
2019-03-16T11:58:02.832Z,11.4
2019-03-16T11:59:03.371Z,11.4
2019-03-16T12:00:03.841Z,11.4
2019-03-16T12:01:03.798Z,11.4
2019-03-16T12:02:06.055Z,11.4
2019-03-16T12:03:03.621Z,11.4
2019-03-16T12:04:03.660Z,11.3
2019-03-16T12:05:03.817Z,11.3
2019-03-16T12:06:03.507Z,11.3
2019-03-16T12:07:03.619Z,11.3
2019-03-16T12:08:03.294Z,11.3
2019-03-16T12:09:03.480Z,11.3
2019-03-16T12:10:03.478Z,11.3
2019-03-16T12:11:03.309Z,11.3
2019-03-16T12:12:02.917Z,11.2
2019-03-16T12:13:03.045Z,11.2
2019-03-16T12:14:03.372Z,11.2
2019-03-16T12:15:03.531Z,11.2
2019-03-16T12:16:03.442Z,11.2
2019-03-16T12:17:03.384Z,11.2
2019-03-16T12:18:03.511Z,11.3
2019-03-16T12:19:02.942Z,11.3
2019-03-16T12:20:03.447Z,11.3
2019-03-16T12:21:03.099Z,11.4
2019-03-16T12:22:03.455Z,11.4
2019-03-16T12:23:03.102Z,11.4
2019-03-16T12:24:03.098Z,11.4
2019-03-16T12:25:03.116Z,11.4
2019-03-16T12:26:02.559Z,11.4
2019-03-16T12:27:03.052Z,11.4
2019-03-16T12:28:03.126Z,11.3
2019-03-16T12:29:03.090Z,11.4
2019-03-16T12:30:03.264Z,11.4
2019-03-16T12:31:02.918Z,11.5
2019-03-16T12:32:02.839Z,11.5
2019-03-16T12:33:03.305Z,11.6
2019-03-16T12:34:02.768Z,11.6
2019-03-16T12:35:03.111Z,11.7
2019-03-16T12:36:03.018Z,11.8
2019-03-16T12:37:03.854Z,11.9
2019-03-16T12:38:03.253Z,12
2019-03-16T12:39:03.651Z,12.1
2019-03-16T12:40:02.866Z,12.1
2019-03-16T12:41:02.877Z,12.2
2019-03-16T12:42:02.709Z,12.1
2019-03-16T12:43:02.844Z,12.1
2019-03-16T12:44:02.564Z,12
2019-03-16T12:45:03.156Z,12
2019-03-16T12:46:03.747Z,12.1
2019-03-16T12:47:03.713Z,12.1
2019-03-16T12:48:03.572Z,12.1
2019-03-16T12:49:03.408Z,12.2
2019-03-16T12:50:03.326Z,12.3
2019-03-16T12:51:03.755Z,12.3
2019-03-16T12:52:03.611Z,12.6
2019-03-16T12:53:02.964Z,12.8
2019-03-16T12:54:03.650Z,12.9
2019-03-16T12:55:03.804Z,13
2019-03-16T12:56:03.585Z,13.1
2019-03-16T12:57:03.401Z,13.4
2019-03-16T12:58:03.455Z,13.4
2019-03-16T12:59:11.174Z,13.6
2019-03-16T13:00:03.099Z,13.4
2019-03-16T13:01:03.239Z,13.6
2019-03-16T13:02:03.432Z,13.6
2019-03-16T13:03:03.395Z,13.4
2019-03-16T13:04:03.471Z,13.2
2019-03-16T13:05:03.334Z,13.1
2019-03-16T13:06:03.648Z,13.1
2019-03-16T13:07:03.268Z,13.1
2019-03-16T13:08:03.396Z,13.1
2019-03-16T13:09:03.545Z,13.1
2019-03-16T13:10:03.135Z,13.1
2019-03-16T13:11:03.367Z,13.1
2019-03-16T13:12:03.278Z,13
2019-03-16T13:13:03.417Z,13
2019-03-16T13:14:03.509Z,12.9
2019-03-16T13:15:03.332Z,12.9
2019-03-16T13:16:03.150Z,12.8
2019-03-16T13:17:03.443Z,12.8
2019-03-16T13:18:03.228Z,12.8
2019-03-16T13:19:03.833Z,12.8
2019-03-16T13:20:03.118Z,12.7
2019-03-16T13:21:02.434Z,12.8
2019-03-16T13:22:03.160Z,12.8
2019-03-16T13:23:03.141Z,12.9
2019-03-16T13:24:03.278Z,12.9
2019-03-16T13:25:03.796Z,12.9
2019-03-16T13:26:03.081Z,12.8
2019-03-16T13:27:02.997Z,12.8
2019-03-16T13:28:02.955Z,12.8
2019-03-16T13:29:02.960Z,12.8
2019-03-16T13:30:03.374Z,12.8
2019-03-16T13:31:02.773Z,12.8
2019-03-16T13:32:03.297Z,12.7
2019-03-16T13:33:03.011Z,12.8
2019-03-16T13:34:03.057Z,12.8
2019-03-16T13:35:03.216Z,12.8
2019-03-16T13:36:02.938Z,12.8
2019-03-16T13:37:03.013Z,12.9